Time;durP1;ratioP1;P1;durP2;ratioP2;P2;SDS_P1;SDS_P2;PMS_P1;PMS_P2;Temp;Humidity;BMP_temperature;BMP_pressure;BME280_temperature;BME280_humidity;BME280_pressure;Samples;Min_cycle;Max_cycle;Signal;HPM_P1;HPM_P2
2022/12/23 00:00:03;;;;;;;;;;;;;;;8.73;79.04;101490.81;5038179;28;19923;-81
2022/12/23 00:02:28;;;;;;;;;;;;;;;8.74;78.96;101492.59;5047773;28;19917;-83
2022/12/23 00:04:54;;;;;;;;;;;;;;;8.70;79.25;101491.50;5047729;28;19939;-83
2022/12/23 00:07:19;;;;;;;;;;;;;;;8.75;79.07;101492.72;5049319;28;20068;-83
2022/12/23 00:09:44;;;;;;;;;;;;;;;8.72;78.96;101494.19;5047085;28;20378;-84
2022/12/23 00:15:06;;;;;;;;;;;;;;;8.75;78.79;101484.00;5041561;28;19995;-83
2022/12/23 00:17:32;;;;;;;;;;;;;;;8.71;79.04;101480.25;5044609;28;19974;-84
2022/12/23 00:19:58;;;;;;;;;;;;;;;8.55;78.93;101448.69;5046559;28;20019;-83
2022/12/23 00:23:03;;;;;;;;;;;;;;;8.76;78.89;101478.00;5050256;28;19966;-83
2022/12/23 00:25:09;;;;;;;;;;;;;;;8.70;78.81;101486.28;5042186;28;19923;-83
2022/12/23 00:27:34;;;;;;;;;;;;;;;8.68;79.01;101477.44;5041904;28;20019;-84
2022/12/23 00:30:00;;;;;;;;;;;;;;;8.70;78.97;101473.25;5042263;28;19920;-84
2022/12/23 00:32:25;;;;;;;;;;;;;;;8.71;79.16;101475.06;5045011;28;19917;-84
2022/12/23 00:34:50;;;;;;;;;;;;;;;8.68;79.08;101471.34;5047080;28;19916;-84
2022/12/23 00:37:16;;;;;;;;;;;;;;;8.71;78.78;101469.84;5045123;28;19917;-84
2022/12/23 00:45:15;;;;;;;;;;;;;;;8.61;79.10;101459.56;5043794;28;19935;-84
2022/12/23 00:50:24;;;;;;;;;;;;;;;8.70;78.62;101454.09;5041793;28;20353;-84
2022/12/23 00:52:50;;;;;;;;;;;;;;;8.64;79.07;101451.09;5040382;28;19916;-83
2022/12/23 00:55:15;;;;;;;;;;;;;;;8.61;78.87;101456.06;5046549;28;20292;-84
2022/12/23 00:57:41;;;;;;;;;;;;;;;8.61;79.25;101451.75;5047814;28;20408;-84
2022/12/23 01:00:06;;;;;;;;;;;;;;;8.63;79.19;101457.06;5045096;28;19947;-83
2022/12/23 01:07:59;;;;;;;;;;;;;;;8.63;78.82;101450.16;5046039;28;20356;-85
2022/12/23 01:10:25;;;;;;;;;;;;;;;8.61;79.07;101443.94;5044139;28;19921;-84
2022/12/23 01:12:50;;;;;;;;;;;;;;;8.59;79.10;101448.13;5043391;28;20015;-84
2022/12/23 01:15:15;;;;;;;;;;;;;;;8.59;79.02;101437.72;5045724;28;20372;-84
2022/12/23 01:17:41;;;;;;;;;;;;;;;8.65;78.78;101435.56;5040531;28;19923;-83
2022/12/23 01:20:07;;;;;;;;;;;;;;;8.61;79.14;101438.72;5049689;28;19913;-84
2022/12/23 01:22:32;;;;;;;;;;;;;;;8.59;79.09;101439.41;5042236;28;19924;-84
2022/12/23 01:24:57;;;;;;;;;;;;;;;8.58;79.00;101437.63;5034787;28;19927;-84
2022/12/23 01:27:23;;;;;;;;;;;;;;;8.58;79.08;101435.03;5046119;28;19921;-84
2022/12/23 01:29:48;;;;;;;;;;;;;;;8.63;78.98;101431.03;5046715;28;19993;-84
2022/12/23 01:32:14;;;;;;;;;;;;;;;8.56;79.11;101430.59;5047067;28;19952;-83
2022/12/23 01:34:39;;;;;;;;;;;;;;;8.60;78.82;101423.91;5040587;28;19978;-84
2022/12/23 01:37:04;;;;;;;;;;;;;;;8.55;79.20;101425.25;5040275;28;19939;-84
2022/12/23 01:39:30;;;;;;;;;;;;;;;8.55;78.74;101427.88;5049029;28;19936;-85
2022/12/23 01:44:47;;;;;;;;;;;;;;;8.49;79.03;101420.53;5058393;28;20419;-85
2022/12/23 01:47:16;;;;;;;;;;;;;;;8.47;79.15;101409.09;5064492;28;19917;-84
2022/12/23 01:49:42;;;;;;;;;;;;;;;8.49;78.97;101402.31;5029101;28;19913;-83
2022/12/23 01:52:07;;;;;;;;;;;;;;;8.47;79.27;101401.31;5033517;28;19913;-83
2022/12/23 01:54:33;;;;;;;;;;;;;;;8.47;79.30;101397.81;5050547;28;19927;-83
2022/12/23 01:56:58;;;;;;;;;;;;;;;8.48;79.18;101399.59;5032403;28;20015;-84
2022/12/23 02:04:52;;;;;;;;;;;;;;;8.47;79.34;101385.69;5053889;28;19982;-84
2022/12/23 02:10:02;;;;;;;;;;;;;;;8.41;79.13;101393.03;5050912;28;19923;-83
2022/12/23 02:12:46;;;;;;;;;;;;;;;8.43;79.40;101393.16;5054593;28;19916;-83
2022/12/23 02:18:14;;;;;;;;;;;;;;;8.42;79.35;101402.66;5069624;28;19943;-83
2022/12/23 02:20:48;;;;;;;;;;;;;;;8.43;79.35;101403.56;5062200;28;19924;-84
2022/12/23 02:23:20;;;;;;;;;;;;;;;8.43;79.38;101401.88;5070225;28;19917;-84
2022/12/23 02:25:54;;;;;;;;;;;;;;;8.44;79.05;101408.88;5068808;28;20386;-84
2022/12/23 02:28:39;;;;;;;;;;;;;;;8.42;79.27;101402.66;5066374;28;19916;-84
2022/12/23 02:31:09;;;;;;;;;;;;;;;8.44;79.16;101410.56;5059193;28;19917;-84
2022/12/23 02:33:43;;;;;;;;;;;;;;;8.49;78.99;101396.22;5043763;28;19941;-84
2022/12/23 02:36:25;;;;;;;;;;;;;;;8.42;79.10;101400.03;5039102;28;19921;-84
2022/12/23 02:39:10;;;;;;;;;;;;;;;8.46;79.09;101394.28;5045918;28;19921;-84
2022/12/23 02:41:46;;;;;;;;;;;;;;;8.39;79.16;101396.31;5027061;28;19999;-83
2022/12/23 02:44:17;;;;;;;;;;;;;;;8.42;79.25;101388.72;5037514;28;19923;-84
2022/12/23 02:46:50;;;;;;;;;;;;;;;8.40;79.18;101391.19;5046647;28;20389;-84
2022/12/23 02:49:21;;;;;;;;;;;;;;;8.42;79.15;101406.97;5053052;28;20302;-84
2022/12/23 02:51:48;;;;;;;;;;;;;;;8.38;79.33;101405.78;5048305;28;20437;-84
2022/12/23 02:54:16;;;;;;;;;;;;;;;8.44;79.04;101403.66;5047784;28;19978;-84
2022/12/23 02:56:42;;;;;;;;;;;;;;;8.41;79.16;101405.16;5043494;28;19925;-84
2022/12/23 02:59:10;;;;;;;;;;;;;;;8.42;79.07;101410.44;5044494;28;20385;-84
2022/12/23 03:01:35;;;;;;;;;;;;;;;8.41;79.20;101408.66;5041258;28;19916;-84
2022/12/23 03:04:00;;;;;;;;;;;;;;;8.41;79.02;101413.88;5029314;28;19917;-82
2022/12/23 03:06:27;;;;;;;;;;;;;;;8.39;79.21;101412.81;5048139;28;19921;-82
2022/12/23 03:08:53;;;;;;;;;;;;;;;8.46;78.73;101412.50;5045641;28;19919;-83
2022/12/23 03:11:19;;;;;;;;;;;;;;;8.44;78.91;101410.56;5038005;28;19920;-85
2022/12/23 03:13:54;;;;;;;;;;;;;;;8.40;78.94;101406.81;5045024;28;19917;-84
2022/12/23 03:16:27;;;;;;;;;;;;;;;8.40;79.13;101412.00;5050041;28;19920;-84
2022/12/23 03:19:02;;;;;;;;;;;;;;;8.41;79.11;101410.38;5050751;28;19951;-84
2022/12/23 03:21:29;;;;;;;;;;;;;;;8.37;78.98;101404.00;5053494;28;19916;-84
2022/12/23 03:24:04;;;;;;;;;;;;;;;8.34;79.27;101403.78;5048878;28;20009;-84
2022/12/23 03:26:31;;;;;;;;;;;;;;;8.35;79.32;101400.38;5048451;28;19939;-83
2022/12/23 03:28:59;;;;;;;;;;;;;;;8.32;79.13;101394.97;5036185;28;19980;-84
2022/12/23 03:31:26;;;;;;;;;;;;;;;8.31;79.38;101399.22;5047278;28;19975;-84
2022/12/23 03:33:53;;;;;;;;;;;;;;;8.33;79.10;101392.44;5041557;28;19917;-84
2022/12/23 03:36:26;;;;;;;;;;;;;;;8.34;79.07;101401.19;5039332;28;20008;-83
2022/12/23 03:38:51;;;;;;;;;;;;;;;8.39;78.77;101397.19;5046278;28;20322;-83
2022/12/23 03:41:18;;;;;;;;;;;;;;;8.36;79.13;101397.88;5045242;28;20460;-83
2022/12/23 03:43:45;;;;;;;;;;;;;;;8.43;78.59;101387.97;5044621;28;19921;-84
2022/12/23 03:46:13;;;;;;;;;;;;;;;8.37;78.90;101393.59;5049509;28;20298;-83
2022/12/23 03:48:42;;;;;;;;;;;;;;;8.35;78.83;101396.06;5046696;28;19928;-83
2022/12/23 03:51:19;;;;;;;;;;;;;;;8.34;78.98;101396.88;5041372;28;19913;-84
2022/12/23 03:53:45;;;;;;;;;;;;;;;8.36;78.97;101394.38;5034774;28;19920;-84
2022/12/23 03:56:13;;;;;;;;;;;;;;;8.36;78.96;101384.88;5043496;28;19923;-84
2022/12/23 03:58:39;;;;;;;;;;;;;;;8.31;79.10;101396.63;5019182;28;20379;-83
2022/12/23 04:01:09;;;;;;;;;;;;;;;8.33;78.79;101395.03;5051451;28;19924;-84
2022/12/23 04:03:55;;;;;;;;;;;;;;;8.34;78.91;101390.78;5048144;28;19995;-83
2022/12/23 04:06:20;;;;;;;;;;;;;;;8.33;78.96;101388.94;5048511;28;19920;-84
2022/12/23 04:08:47;;;;;;;;;;;;;;;8.33;78.67;101384.63;5028730;28;19921;-84
2022/12/23 04:11:12;;;;;;;;;;;;;;;8.34;78.63;101378.66;5044257;28;19917;-83
2022/12/23 04:13:37;;;;;;;;;;;;;;;8.33;78.80;101389.84;5044000;28;20003;-83
2022/12/23 04:16:03;;;;;;;;;;;;;;;8.34;78.83;101391.66;5048363;28;19923;-83
2022/12/23 04:18:29;;;;;;;;;;;;;;;8.33;78.74;101391.53;5033108;28;20385;-84
2022/12/23 04:20:54;;;;;;;;;;;;;;;8.31;78.85;101391.44;5042743;28;20424;-84
2022/12/23 04:23:19;;;;;;;;;;;;;;;8.31;78.85;101396.63;5036651;28;19917;-84
2022/12/23 04:25:45;;;;;;;;;;;;;;;8.32;78.71;101393.25;5045491;28;20317;-84
2022/12/23 04:28:10;;;;;;;;;;;;;;;8.34;78.58;101398.56;5041856;28;19940;-84
2022/12/23 04:30:36;;;;;;;;;;;;;;;8.33;78.65;101402.84;5047870;28;20012;-83
2022/12/23 04:33:01;;;;;;;;;;;;;;;8.29;78.78;101400.81;5049915;28;19935;-83
2022/12/23 04:35:27;;;;;;;;;;;;;;;8.31;78.69;101398.34;5047481;28;20386;-84
2022/12/23 04:37:52;;;;;;;;;;;;;;;8.31;78.58;101399.22;5051881;28;19917;-83
2022/12/23 04:40:18;;;;;;;;;;;;;;;8.32;78.37;101397.56;5045661;28;20046;-83
2022/12/23 04:42:43;;;;;;;;;;;;;;;8.31;78.72;101403.53;5047177;28;20282;-83
2022/12/23 04:45:09;;;;;;;;;;;;;;;8.27;78.82;101401.50;5035973;28;19931;-83
2022/12/23 04:47:34;;;;;;;;;;;;;;;8.28;78.50;101401.63;5050911;28;20425;-83
2022/12/23 04:50:00;;;;;;;;;;;;;;;8.27;78.29;101404.09;5048163;28;20015;-83
2022/12/23 04:52:25;;;;;;;;;;;;;;;8.24;78.90;101401.28;5045599;28;19916;-83
2022/12/23 04:54:51;;;;;;;;;;;;;;;8.28;78.57;101411.13;5046704;28;19912;-83
2022/12/23 04:57:16;;;;;;;;;;;;;;;8.27;78.74;101414.50;5042357;28;20283;-84
2022/12/23 04:59:41;;;;;;;;;;;;;;;8.32;78.55;101410.56;5043285;28;19916;-85
2022/12/23 05:02:07;;;;;;;;;;;;;;;8.26;78.58;101411.00;5050704;28;20290;-82
2022/12/23 05:04:32;;;;;;;;;;;;;;;8.31;78.50;101408.75;5045795;28;19917;-83
2022/12/23 05:06:58;;;;;;;;;;;;;;;8.28;78.50;101408.53;5037946;28;19921;-83
2022/12/23 05:09:23;;;;;;;;;;;;;;;8.30;78.40;101410.44;5041139;28;20390;-84
2022/12/23 05:11:49;;;;;;;;;;;;;;;8.26;78.66;101408.41;5039656;28;20463;-83
2022/12/23 05:14:14;;;;;;;;;;;;;;;8.25;78.54;101413.50;5050235;28;19923;-83
2022/12/23 05:16:39;;;;;;;;;;;;;;;8.26;78.37;101410.13;5045819;28;20390;-84
2022/12/23 05:19:05;;;;;;;;;;;;;;;8.32;78.31;101410.56;5049054;28;20305;-84
2022/12/23 05:21:30;;;;;;;;;;;;;;;8.24;78.53;101412.59;5047367;28;20297;-83
2022/12/23 05:23:56;;;;;;;;;;;;;;;8.21;78.66;101420.16;5047350;28;19963;-84
2022/12/23 05:26:21;;;;;;;;;;;;;;;8.25;78.36;101417.00;5019513;28;20306;-84
2022/12/23 05:28:47;;;;;;;;;;;;;;;8.26;78.54;101417.91;5024209;28;20016;-84
2022/12/23 05:31:12;;;;;;;;;;;;;;;8.22;78.59;101414.19;5047878;28;19923;-84
2022/12/23 05:33:38;;;;;;;;;;;;;;;8.21;78.72;101414.06;5041748;28;19983;-83
2022/12/23 05:36:03;;;;;;;;;;;;;;;8.26;78.45;101412.72;5040662;28;19917;-83
2022/12/23 05:38:29;;;;;;;;;;;;;;;8.23;78.31;101408.16;5039379;28;19913;-83
2022/12/23 05:40:54;;;;;;;;;;;;;;;8.23;78.50;101412.47;5045093;28;19917;-83
2022/12/23 05:43:20;;;;;;;;;;;;;;;8.21;78.49;101411.47;5049249;28;20508;-83
2022/12/23 05:45:45;;;;;;;;;;;;;;;8.19;78.76;101413.03;5040454;28;19924;-83
2022/12/23 05:48:10;;;;;;;;;;;;;;;8.18;78.57;101411.25;5048605;28;19920;-83
2022/12/23 05:50:36;;;;;;;;;;;;;;;8.25;78.22;101414.38;5034956;28;21114;-84
2022/12/23 05:53:02;;;;;;;;;;;;;;;8.23;78.44;101412.47;5039207;28;20543;-83
2022/12/23 05:55:27;;;;;;;;;;;;;;;8.26;78.31;101411.00;5044301;28;20374;-83
2022/12/23 05:57:53;;;;;;;;;;;;;;;8.23;78.39;101417.69;5051914;28;19917;-84
2022/12/23 06:00:19;;;;;;;;;;;;;;;8.20;78.52;101415.75;5051309;28;19934;-89
2022/12/23 06:02:45;;;;;;;;;;;;;;;8.20;78.60;101414.88;5047477;28;19943;-84
2022/12/23 06:05:11;;;;;;;;;;;;;;;8.20;78.52;101414.88;5044701;28;20374;-84
2022/12/23 06:07:36;;;;;;;;;;;;;;;8.22;78.32;101416.78;5042758;28;19929;-84
2022/12/23 06:10:02;;;;;;;;;;;;;;;8.21;78.38;101416.66;5037446;28;19928;-84
2022/12/23 06:12:28;;;;;;;;;;;;;;;8.20;78.34;101417.47;5043789;28;19917;-84
2022/12/23 06:14:53;;;;;;;;;;;;;;;8.21;78.13;101424.47;5019996;28;20120;-84
2022/12/23 06:17:23;;;;;;;;;;;;;;;8.18;78.63;101425.16;5031696;28;20475;-84
2022/12/23 06:19:48;;;;;;;;;;;;;;;8.17;78.41;101431.16;5024946;28;19917;-84
2022/12/23 06:22:14;;;;;;;;;;;;;;;8.13;78.77;101429.13;5040810;28;19919;-84
2022/12/23 06:24:39;;;;;;;;;;;;;;;8.12;78.58;101435.09;5045394;28;19921;-84
2022/12/23 06:27:05;;;;;;;;;;;;;;;8.14;78.60;101434.41;5043023;28;19932;-85
2022/12/23 06:29:30;;;;;;;;;;;;;;;8.12;78.88;101440.31;5037016;28;19923;-84
2022/12/23 06:31:55;;;;;;;;;;;;;;;8.14;78.73;101438.72;5040353;28;19966;-84
2022/12/23 06:34:21;;;;;;;;;;;;;;;8.10;78.53;101432.38;5039594;28;19917;-84
2022/12/23 06:36:47;;;;;;;;;;;;;;;8.10;78.82;101436.69;5042679;28;19971;-84
2022/12/23 06:39:12;;;;;;;;;;;;;;;8.24;78.91;101437.72;5035050;28;19925;-85
2022/12/23 06:41:37;;;;;;;;;;;;;;;8.36;77.99;101436.91;5030948;28;19924;-84
2022/12/23 06:44:03;;;;;;;;;;;;;;;8.30;77.98;101428.66;5044987;28;19913;-85
2022/12/23 06:46:36;;;;;;;;;;;;;;;8.26;78.37;101433.53;5049779;28;20367;-85
2022/12/23 06:49:01;;;;;;;;;;;;;;;8.25;78.42;101435.22;5048550;28;19920;-84
2022/12/23 06:51:27;;;;;;;;;;;;;;;8.16;78.68;101438.03;5056575;28;19983;-82
2022/12/23 06:53:53;;;;;;;;;;;;;;;8.14;78.67;101450.03;5066782;28;20416;-83
2022/12/23 06:56:19;;;;;;;;;;;;;;;8.11;78.67;101449.81;5045760;28;19920;-84
2022/12/23 06:58:44;;;;;;;;;;;;;;;8.12;78.80;101438.59;5036772;28;19917;-85
2022/12/23 07:01:10;;;;;;;;;;;;;;;8.15;78.37;101453.56;5037222;28;20309;-84
2022/12/23 07:03:35;;;;;;;;;;;;;;;8.15;78.45;101458.75;5040320;28;19913;-84
2022/12/23 07:06:00;;;;;;;;;;;;;;;8.11;78.44;101455.00;5039779;28;20039;-84
2022/12/23 07:08:26;;;;;;;;;;;;;;;8.10;78.52;101450.59;5050036;28;20305;-85
2022/12/23 07:10:58;;;;;;;;;;;;;;;8.13;78.59;101449.94;5050355;28;20382;-86
2022/12/23 07:13:24;;;;;;;;;;;;;;;8.15;78.23;101449.25;5042758;28;19913;-87
2022/12/23 07:15:49;;;;;;;;;;;;;;;8.15;77.56;101436.25;5042888;28;19988;-85
2022/12/23 07:18:15;;;;;;;;;;;;;;;8.16;78.03;101443.25;5049035;28;19913;-86
2022/12/23 07:20:41;;;;;;;;;;;;;;;8.15;77.99;101443.16;5043159;28;20354;-85
2022/12/23 07:23:06;;;;;;;;;;;;;;;8.10;78.27;101440.19;5039396;28;19916;-85
2022/12/23 07:25:32;;;;;;;;;;;;;;;8.07;78.21;101436.47;5046838;28;20306;-86
2022/12/23 07:27:57;;;;;;;;;;;;;;;8.02;77.46;101435.19;5038980;28;20389;-86
2022/12/23 07:30:23;;;;;;;;;;;;;;;8.05;78.16;101440.66;5039214;28;19948;-86
2022/12/23 07:32:48;;;;;;;;;;;;;;;8.09;78.28;101446.19;5049133;28;19917;-87
2022/12/23 07:35:14;;;;;;;;;;;;;;;8.09;78.02;101437.50;5049650;28;19956;-88
2022/12/23 07:37:40;;;;;;;;;;;;;;;8.06;78.37;101437.25;5047414;28;19917;-87
2022/12/23 07:40:06;;;;;;;;;;;;;;;8.03;78.52;101430.13;5046415;28;19920;-86
2022/12/23 07:42:32;;;;;;;;;;;;;;;8.06;78.40;101435.53;5041983;28;20306;-86
2022/12/23 07:44:57;;;;;;;;;;;;;;;8.06;78.38;101430.34;5047725;28;19963;-86
2022/12/23 07:47:24;;;;;;;;;;;;;;;8.11;78.22;101431.59;5050992;28;20356;-87
2022/12/23 07:49:49;;;;;;;;;;;;;;;8.07;78.54;101432.16;5050080;28;19912;-86
2022/12/23 07:52:15;;;;;;;;;;;;;;;8.08;78.33;101433.06;5046672;28;19920;-86
2022/12/23 07:54:40;;;;;;;;;;;;;;;8.08;78.56;101433.06;5034347;28;19919;-86
2022/12/23 07:57:06;;;;;;;;;;;;;;;8.02;78.60;101430.94;5050275;28;20029;-85
2022/12/23 07:59:31;;;;;;;;;;;;;;;8.10;78.58;101429.78;5046653;28;20396;-85
2022/12/23 08:01:57;;;;;;;;;;;;;;;8.11;78.47;101434.19;5039294;28;20353;-85
2022/12/23 08:04:22;;;;;;;;;;;;;;;8.08;78.56;101433.97;5036980;28;20402;-87
2022/12/23 08:06:48;;;;;;;;;;;;;;;8.06;78.94;101430.34;5021955;28;20481;-86
2022/12/23 08:09:14;;;;;;;;;;;;;;;8.05;78.56;101428.53;5048682;28;19913;-84
2022/12/23 08:11:40;;;;;;;;;;;;;;;8.06;78.64;101424.22;5046384;28;19924;-87
2022/12/23 08:14:06;;;;;;;;;;;;;;;8.05;78.74;101427.63;5049466;28;19960;-86
2022/12/23 08:16:31;;;;;;;;;;;;;;;8.03;78.77;101427.50;5045466;28;20330;-86
2022/12/23 08:18:57;;;;;;;;;;;;;;;8.10;78.72;101423.66;5037282;28;20543;-87
2022/12/23 08:21:22;;;;;;;;;;;;;;;8.07;78.65;101426.06;5038898;28;20309;-86
2022/12/23 08:23:48;;;;;;;;;;;;;;;8.07;78.66;101420.84;5035813;28;20007;-87
2022/12/23 08:26:14;;;;;;;;;;;;;;;8.05;78.79;101425.03;5048062;28;20028;-86
2022/12/23 08:28:40;;;;;;;;;;;;;;;8.07;78.73;101419.16;5031972;28;19960;-86
2022/12/23 08:31:08;;;;;;;;;;;;;;;8.05;78.69;101418.13;5037132;28;20476;-87
2022/12/23 08:33:35;;;;;;;;;;;;;;;8.05;78.72;101410.34;5041030;28;20011;-88
2022/12/23 08:36:01;;;;;;;;;;;;;;;8.06;78.64;101406.91;5038133;28;19920;-87
2022/12/23 08:38:26;;;;;;;;;;;;;;;8.05;79.00;101410.34;5033601;28;20417;-86
2022/12/23 08:40:52;;;;;;;;;;;;;;;8.05;78.80;101406.84;5047507;28;20007;-86
2022/12/23 08:43:18;;;;;;;;;;;;;;;8.06;78.79;101399.13;5030060;28;19970;-86
2022/12/23 08:45:44;;;;;;;;;;;;;;;8.09;78.60;101399.38;5040887;28;19928;-86
2022/12/23 08:48:09;;;;;;;;;;;;;;;8.10;78.66;101382.06;5052484;28;19920;-86
2022/12/23 08:50:38;;;;;;;;;;;;;;;8.07;78.80;101381.84;5036824;28;20317;-86
2022/12/23 08:53:05;;;;;;;;;;;;;;;8.04;78.77;101382.50;5036780;28;19952;-86
2022/12/23 08:55:35;;;;;;;;;;;;;;;8.02;79.08;101378.91;5036846;28;20369;-86
2022/12/23 08:58:00;;;;;;;;;;;;;;;8.06;78.94;101372.22;5040072;28;20444;-87
2022/12/23 09:00:26;;;;;;;;;;;;;;;8.08;78.93;101370.63;5040380;28;19921;-86
2022/12/23 09:02:51;;;;;;;;;;;;;;;8.11;78.63;101365.66;5037367;28;20603;-86
2022/12/23 09:05:17;;;;;;;;;;;;;;;8.05;79.02;101366.13;5036099;28;20009;-88
2022/12/23 09:07:42;;;;;;;;;;;;;;;8.11;78.72;101360.47;5043437;28;19946;-86
2022/12/23 09:10:07;;;;;;;;;;;;;;;8.09;78.89;101362.06;5039277;28;20489;-87
2022/12/23 09:12:33;;;;;;;;;;;;;;;8.07;78.83;101348.94;5040296;28;20421;-86
2022/12/23 09:14:58;;;;;;;;;;;;;;;8.13;78.76;101343.28;5044786;28;19917;-87
2022/12/23 09:17:24;;;;;;;;;;;;;;;8.14;78.61;101345.06;5043429;28;19921;-86
2022/12/23 09:19:49;;;;;;;;;;;;;;;8.11;78.79;101337.06;5040271;28;20349;-88
2022/12/23 09:22:14;;;;;;;;;;;;;;;8.11;78.82;101339.66;5042154;28;19921;-87
2022/12/23 09:24:40;;;;;;;;;;;;;;;8.09;79.01;101333.44;5035897;28;20433;-87
2022/12/23 09:27:05;;;;;;;;;;;;;;;8.10;78.92;101332.63;5043220;28;20350;-87
2022/12/23 09:29:31;;;;;;;;;;;;;;;8.15;78.76;101323.47;5034889;28;20583;-87
2022/12/23 09:31:56;;;;;;;;;;;;;;;8.13;78.80;101325.97;5036553;28;20356;-87
2022/12/23 09:34:22;;;;;;;;;;;;;;;8.11;78.90;101335.34;5031904;28;19921;-87
2022/12/23 09:36:47;;;;;;;;;;;;;;;8.12;78.82;101329.34;5032400;28;19976;-87
2022/12/23 09:39:12;;;;;;;;;;;;;;;8.12;78.81;101333.66;5034668;28;19949;-88
2022/12/23 09:41:38;;;;;;;;;;;;;;;8.12;78.71;101325.84;5027632;28;20415;-85
2022/12/23 09:44:14;;;;;;;;;;;;;;;8.12;78.74;101318.03;5031392;28;19921;-85
2022/12/23 09:46:44;;;;;;;;;;;;;;;8.09;78.78;101316.13;5045821;28;20069;-86
2022/12/23 09:49:10;;;;;;;;;;;;;;;8.09;78.74;101316.13;5042927;28;20425;-83
2022/12/23 09:51:36;;;;;;;;;;;;;;;8.09;78.83;101321.34;5044553;28;19917;-87
2022/12/23 09:54:13;;;;;;;;;;;;;;;8.08;79.02;101319.50;5044236;28;19924;-84
2022/12/23 09:56:39;;;;;;;;;;;;;;;8.09;78.90;101316.13;5039246;28;19920;-86
2022/12/23 09:59:23;;;;;;;;;;;;;;;8.11;78.51;101311.94;5042114;28;20003;-84
2022/12/23 10:02:04;;;;;;;;;;;;;;;8.13;78.74;101307.75;5038212;28;19963;-84
2022/12/23 10:04:35;;;;;;;;;;;;;;;8.15;78.63;101305.28;5037745;28;20027;-84
2022/12/23 10:07:03;;;;;;;;;;;;;;;8.11;78.70;101306.75;5032352;28;19921;-84
2022/12/23 10:09:33;;;;;;;;;;;;;;;8.12;78.62;101302.44;5034360;28;20319;-84
2022/12/23 10:11:58;;;;;;;;;;;;;;;8.16;78.58;101301.88;5039546;28;20004;-84
2022/12/23 10:14:26;;;;;;;;;;;;;;;8.14;78.61;101303.44;5045100;28;20031;-84
2022/12/23 10:16:54;;;;;;;;;;;;;;;8.15;78.47;101295.75;5031539;28;19913;-83
2022/12/23 10:19:19;;;;;;;;;;;;;;;8.12;78.71;101289.44;5019154;28;19920;-84
2022/12/23 10:21:49;;;;;;;;;;;;;;;8.12;78.70;101285.13;5050484;28;19913;-85
2022/12/23 10:24:17;;;;;;;;;;;;;;;8.16;78.63;101291.44;5046933;28;19912;-84
2022/12/23 10:27:03;;;;;;;;;;;;;;;8.15;78.40;101290.56;5050323;28;20309;-84
2022/12/23 10:29:32;;;;;;;;;;;;;;;8.17;78.47;101288.06;5053884;28;20007;-85
2022/12/23 10:32:12;;;;;;;;;;;;;;;8.15;78.54;101285.34;5046380;28;19971;-85
2022/12/23 10:34:44;;;;;;;;;;;;;;;8.13;78.73;101278.25;5052787;28;20278;-85
2022/12/23 10:37:36;;;;;;;;;;;;;;;8.13;78.63;101275.63;5040181;28;19967;-85
2022/12/23 10:40:14;;;;;;;;;;;;;;;8.21;78.22;101270.97;5043377;28;19927;-85
2022/12/23 10:42:58;;;;;;;;;;;;;;;8.20;78.15;101282.19;5047295;28;19919;-85
2022/12/23 10:45:38;;;;;;;;;;;;;;;8.16;78.49;101271.53;5047709;28;20120;-85
2022/12/23 10:48:12;;;;;;;;;;;;;;;8.15;78.77;101266.25;5049198;28;20317;-85
2022/12/23 10:50:47;;;;;;;;;;;;;;;8.13;78.87;101276.53;5048055;28;20008;-85
2022/12/23 10:53:13;;;;;;;;;;;;;;;8.13;78.94;101270.44;5049382;28;19913;-85
2022/12/23 10:55:39;;;;;;;;;;;;;;;8.12;78.83;101271.22;5031981;28;19971;-85
2022/12/23 10:58:09;;;;;;;;;;;;;;;8.13;78.64;101263.53;5032564;28;20370;-85
2022/12/23 11:00:36;;;;;;;;;;;;;;;8.16;78.58;101261.13;5023958;28;19917;-85
2022/12/23 11:03:22;;;;;;;;;;;;;;;8.16;78.58;101261.13;5047699;28;20397;-85
2022/12/23 11:05:48;;;;;;;;;;;;;;;8.18;78.50;101256.06;5045114;28;19924;-85
2022/12/23 11:08:13;;;;;;;;;;;;;;;8.22;78.37;101257.19;5039880;28;19940;-85
2022/12/23 11:10:39;;;;;;;;;;;;;;;8.24;78.52;101253.88;5034346;28;20346;-85
2022/12/23 11:13:04;;;;;;;;;;;;;;;8.22;78.56;101257.19;5038518;28;20310;-86
2022/12/23 11:15:37;;;;;;;;;;;;;;;8.28;78.18;101260.22;5039914;28;19921;-87
2022/12/23 11:18:12;;;;;;;;;;;;;;;8.27;78.27;101259.28;5044470;28;19951;-86
2022/12/23 11:20:40;;;;;;;;;;;;;;;8.31;78.14;101260.44;5051355;28;19943;-87
2022/12/23 11:23:15;;;;;;;;;;;;;;;8.24;78.46;101250.38;5029014;28;19964;-87
2022/12/23 11:25:42;;;;;;;;;;;;;;;8.22;78.47;101259.78;5026413;28;19925;-87
2022/12/23 11:28:10;;;;;;;;;;;;;;;8.23;78.38;101264.19;5042141;28;19920;-86
2022/12/23 11:30:44;;;;;;;;;;;;;;;8.26;78.06;101261.81;5043622;28;19998;-87
2022/12/23 11:33:20;;;;;;;;;;;;;;;8.22;78.46;101252.88;5044670;28;20405;-87
2022/12/23 11:35:45;;;;;;;;;;;;;;;8.26;78.18;101262.72;5043160;28;19998;-87
2022/12/23 11:38:11;;;;;;;;;;;;;;;8.22;78.54;101265.00;5041994;28;19948;-87
2022/12/23 11:40:37;;;;;;;;;;;;;;;8.23;78.51;101259.88;5030321;28;19943;-87
2022/12/23 11:43:04;;;;;;;;;;;;;;;8.29;78.42;101251.59;5034252;28;19917;-86
2022/12/23 11:45:32;;;;;;;;;;;;;;;8.31;78.26;101253.50;5036980;28;19921;-87
2022/12/23 11:47:57;;;;;;;;;;;;;;;8.24;78.39;101251.28;5044123;28;19922;-86
2022/12/23 11:50:27;;;;;;;;;;;;;;;8.41;77.51;101257.72;5041731;28;19917;-86
2022/12/23 11:53:13;;;;;;;;;;;;;;;8.36;77.68;101262.56;5042221;28;19913;-86
2022/12/23 11:55:43;;;;;;;;;;;;;;;8.28;78.07;101262.81;5039783;28;20066;-84
2022/12/23 11:58:11;;;;;;;;;;;;;;;8.26;78.25;101267.91;5041616;28;19928;-83
2022/12/23 12:00:40;;;;;;;;;;;;;;;8.22;78.40;101263.28;5035697;28;19959;-84
2022/12/23 12:03:06;;;;;;;;;;;;;;;8.26;78.56;101265.31;5028364;28;19913;-84
2022/12/23 12:05:32;;;;;;;;;;;;;;;8.38;77.95;101269.56;5034249;28;19913;-84
2022/12/23 12:07:59;;;;;;;;;;;;;;;8.34;78.23;101260.66;5033460;28;19924;-84
2022/12/23 12:10:25;;;;;;;;;;;;;;;8.31;78.24;101261.31;5043835;28;19913;-84
2022/12/23 12:12:53;;;;;;;;;;;;;;;8.29;78.22;101259.41;5048623;28;19917;-83
2022/12/23 12:15:20;;;;;;;;;;;;;;;8.31;78.38;101263.03;5049576;28;19919;-83
2022/12/23 12:17:46;;;;;;;;;;;;;;;8.35;77.98;101259.84;5044671;28;20017;-84
2022/12/23 12:20:24;;;;;;;;;;;;;;;8.42;77.79;101264.72;5046519;28;20393;-84
2022/12/23 12:22:51;;;;;;;;;;;;;;;8.36;78.12;101265.16;5045330;28;20313;-84
2022/12/23 12:25:16;;;;;;;;;;;;;;;8.36;78.09;101272.09;5025938;28;19960;-84
2022/12/23 12:27:42;;;;;;;;;;;;;;;8.41;78.09;101269.84;5037232;28;19965;-83
2022/12/23 12:30:11;;;;;;;;;;;;;;;8.42;77.71;101262.09;5044234;28;20191;-83
2022/12/23 12:32:43;;;;;;;;;;;;;;;8.44;77.87;101257.03;5034134;28;19917;-83
2022/12/23 12:35:11;;;;;;;;;;;;;;;8.39;78.00;101260.97;5035758;28;20496;-85
2022/12/23 12:37:39;;;;;;;;;;;;;;;8.42;78.06;101266.41;5032292;28;19942;-84
2022/12/23 12:40:14;;;;;;;;;;;;;;;8.41;78.06;101269.84;5033482;28;19921;-85
2022/12/23 12:42:40;;;;;;;;;;;;;;;8.33;78.31;101277.94;5049616;28;19920;-84
2022/12/23 12:45:12;;;;;;;;;;;;;;;8.36;78.63;101275.56;5035269;28;19920;-84
2022/12/23 12:47:39;;;;;;;;;;;;;;;8.41;78.44;101272.44;5045284;28;19967;-84
2022/12/23 12:50:15;;;;;;;;;;;;;;;8.41;78.75;101280.25;5044961;28;19913;-84
2022/12/23 12:52:41;;;;;;;;;;;;;;;8.41;78.72;101281.13;5043833;28;19963;-84
2022/12/23 12:55:12;;;;;;;;;;;;;;;8.42;78.43;101279.44;5042183;28;19921;-85
2022/12/23 12:57:38;;;;;;;;;;;;;;;8.42;78.69;101282.94;5040163;28;19921;-84
2022/12/23 13:00:09;;;;;;;;;;;;;;;8.43;78.65;101282.16;5039349;28;19943;-84
2022/12/23 13:02:53;;;;;;;;;;;;;;;8.41;78.67;101278.53;5036656;28;20416;-85
2022/12/23 13:05:19;;;;;;;;;;;;;;;8.44;78.77;101283.03;5035400;28;19967;-84
2022/12/23 13:07:44;;;;;;;;;;;;;;;8.45;78.56;101287.47;5036090;28;19921;-84
2022/12/23 13:10:16;;;;;;;;;;;;;;;8.47;78.27;101288.50;5033052;28;20008;-84
2022/12/23 13:12:47;;;;;;;;;;;;;;;8.45;78.54;101297.88;5032578;28;19917;-84
2022/12/23 13:15:31;;;;;;;;;;;;;;;8.46;78.67;101294.47;5049205;28;20287;-84
2022/12/23 13:17:56;;;;;;;;;;;;;;;8.45;78.61;101285.75;5045273;28;19920;-84
2022/12/23 13:20:31;;;;;;;;;;;;;;;8.45;78.38;101300.50;5046489;28;19917;-84